Rakoskert, Hungary

6:16 AM CET on January 19, 2017 (GMT +0100)
Szigetcsep u. | | Change Station

Elev 669 ft 47.47 °N, 19.31 °E | Updated 29 seconds ago

Clear
Clear
16.7 °F
Feels Like 17 °F
N
0.0
Wind Variable Wind from ENE
Gusts 0.0 mph

Today
High -- | Low -- °F
--% Chance of Precip.
Yesterday
High -- | Low -- °F
Precip. -- in
Pressure 30.57 in
Visibility -9999.0 miles
Clouds
Windchill 17 °F
Dew Point 11 °F
Humidity 78%
Rainfall 0.00 in
Snow Depth Not available.
7:22 AM 4:24 PM
Waning Gibbous, 57% visible
METAR LHBP 190500Z 34005KT CAVOK M08/M11 Q1035 NOSIG
Pressure 30.57 in
Visibility -9999.0 miles
Clouds
Windchill 17 °F
Dew Point 11 °F
Humidity 78%
Rainfall 0.00 in
Snow Depth Not available.
7:22 AM 4:24 PM
Waning Gibbous, 57% visible
METAR LHBP 190500Z 34005KT CAVOK M08/M11 Q1035 NOSIG

Get Your Daily Forecast Email!

Thanks for signing up!

Be on the lookout for a verification email in your inbox.

You'll start receiving the daily forecast at 8 AM.

×

10-Day Weather Forecast

×

Almanac

Astronomy

Jan. 19, 2017 Rise Set
Actual Time
Civil Twilight
Nautical Twilight
Astronomical Twilight
Moon
Length of Visible Light
Length of Day
Tomorrow will be .
, % of the Moon is Illuminated

Today's Extremes

Country Highs Country Lows

Community

WunderPhotos

Upload Photos

1,962,540 photos uploaded!

WunderBlog® & News

Nearby

Air Quality

  Air Quality AQ Index Pollutant
Not available.

Snow Depth

Station Depth Elevation

Earthquake Activity

City Distance Mag. Time & Date
Minimum magnitude displayed is 2.5.

Coastal Water Temperatures

Place Temperature

Stations

Nearby Weather Stations

Station Location Temp. Windchill Dew Point Humidity Wind Precip. Elev Updated Type